sensor_id;sensor_type;location;lat;lon;timestamp;pressure;altitude;pressure_sealevel;temperature;humidity
50462;BME280;45257;37.996;-122.328;2022-08-11T00:00:12;101501.88;;;25.37;59.96
50462;BME280;45257;37.996;-122.328;2022-08-11T00:02:46;101504.34;;;25.38;60.08
50462;BME280;45257;37.996;-122.328;2022-08-11T00:05:19;101503.91;;;25.42;60.19
50462;BME280;45257;37.996;-122.328;2022-08-11T00:07:55;101501.00;;;25.43;60.02
50462;BME280;45257;37.996;-122.328;2022-08-11T00:10:27;101505.16;;;25.46;60.22
50462;BME280;45257;37.996;-122.328;2022-08-11T00:13:03;101505.75;;;25.48;60.20
50462;BME280;45257;37.996;-122.328;2022-08-11T00:15:43;101501.78;;;25.50;60.58
50462;BME280;45257;37.996;-122.328;2022-08-11T00:18:12;101496.97;;;25.52;60.62
50462;BME280;45257;37.996;-122.328;2022-08-11T00:20:41;101491.31;;;25.54;60.55
50462;BME280;45257;37.996;-122.328;2022-08-11T00:23:15;101500.88;;;25.57;60.59
50462;BME280;45257;37.996;-122.328;2022-08-11T00:25:49;101491.69;;;25.58;60.89
50462;BME280;45257;37.996;-122.328;2022-08-11T00:28:27;101497.72;;;25.60;60.75
50462;BME280;45257;37.996;-122.328;2022-08-11T00:31:03;101500.00;;;25.63;60.61
50462;BME280;45257;37.996;-122.328;2022-08-11T00:33:41;101496.22;;;25.64;61.00
50462;BME280;45257;37.996;-122.328;2022-08-11T00:36:11;101494.13;;;25.66;61.35
50462;BME280;45257;37.996;-122.328;2022-08-11T00:38:42;101487.44;;;25.68;60.95
50462;BME280;45257;37.996;-122.328;2022-08-11T00:44:36;101488.63;;;25.73;61.78
50462;BME280;45257;37.996;-122.328;2022-08-11T00:54:38;101490.47;;;25.79;62.80
50462;BME280;45257;37.996;-122.328;2022-08-11T01:19:00;101473.25;;;25.92;63.15
50462;BME280;45257;37.996;-122.328;2022-08-11T01:31:27;101470.03;;;25.95;61.60
50462;BME280;45257;37.996;-122.328;2022-08-11T01:46:23;101469.31;;;25.88;58.03
50462;BME280;45257;37.996;-122.328;2022-08-11T01:49:16;101468.88;;;25.72;54.92
50462;BME280;45257;37.996;-122.328;2022-08-11T01:52:29;101471.25;;;25.62;54.68
50462;BME280;45257;37.996;-122.328;2022-08-11T02:07:38;101478.22;;;25.25;53.04
50462;BME280;45257;37.996;-122.328;2022-08-11T02:10:21;101473.53;;;25.14;54.30
50462;BME280;45257;37.996;-122.328;2022-08-11T02:13:48;101481.72;;;25.07;53.41
50462;BME280;45257;37.996;-122.328;2022-08-11T02:22:59;101483.06;;;24.91;54.06
50462;BME280;45257;37.996;-122.328;2022-08-11T02:25:56;101488.09;;;24.88;54.24
50462;BME280;45257;37.996;-122.328;2022-08-11T02:32:04;101498.91;;;24.88;53.91
50462;BME280;45257;37.996;-122.328;2022-08-11T02:35:27;101487.25;;;24.87;54.44
50462;BME280;45257;37.996;-122.328;2022-08-11T02:45:16;101505.69;;;24.65;54.83
50462;BME280;45257;37.996;-122.328;2022-08-11T02:48:36;101504.88;;;24.58;54.58
50462;BME280;45257;37.996;-122.328;2022-08-11T02:51:39;101495.66;;;24.79;54.56
50462;BME280;45257;37.996;-122.328;2022-08-11T02:54:59;101505.56;;;24.85;54.14
50462;BME280;45257;37.996;-122.328;2022-08-11T03:00:46;101509.16;;;24.79;54.44
50462;BME280;45257;37.996;-122.328;2022-08-11T03:03:47;101514.00;;;24.70;54.56
50462;BME280;45257;37.996;-122.328;2022-08-11T03:06:38;101520.66;;;24.61;55.00
50462;BME280;45257;37.996;-122.328;2022-08-11T03:09:19;101516.88;;;24.69;54.99
50462;BME280;45257;37.996;-122.328;2022-08-11T03:12:18;101528.13;;;24.72;54.47
50462;BME280;45257;37.996;-122.328;2022-08-11T03:15:16;101523.53;;;24.73;54.80
50462;BME280;45257;37.996;-122.328;2022-08-11T03:20:47;101522.50;;;24.74;54.52
50462;BME280;45257;37.996;-122.328;2022-08-11T03:35:02;101530.97;;;24.84;54.84
50462;BME280;45257;37.996;-122.328;2022-08-11T03:37:47;101533.84;;;24.89;54.88
50462;BME280;45257;37.996;-122.328;2022-08-11T03:40:51;101531.84;;;24.78;54.58
50462;BME280;45257;37.996;-122.328;2022-08-11T03:50:01;101550.97;;;24.83;54.52
50462;BME280;45257;37.996;-122.328;2022-08-11T03:58:56;101544.66;;;24.89;54.88
50462;BME280;45257;37.996;-122.328;2022-08-11T04:04:06;101545.06;;;24.93;54.96
50462;BME280;45257;37.996;-122.328;2022-08-11T04:13:12;101553.63;;;24.90;54.43
50462;BME280;45257;37.996;-122.328;2022-08-11T04:16:14;101560.28;;;24.87;54.62
50462;BME280;45257;37.996;-122.328;2022-08-11T04:25:02;101563.50;;;24.64;56.72
50462;BME280;45257;37.996;-122.328;2022-08-11T04:27:52;101562.25;;;24.60;56.98
50462;BME280;45257;37.996;-122.328;2022-08-11T04:53:59;101584.81;;;24.33;57.43
50462;BME280;45257;37.996;-122.328;2022-08-11T04:56:50;101588.16;;;24.35;57.59
50462;BME280;45257;37.996;-122.328;2022-08-11T05:03:02;101593.56;;;24.35;57.84
50462;BME280;45257;37.996;-122.328;2022-08-11T05:09:03;101589.81;;;24.37;58.42
50462;BME280;45257;37.996;-122.328;2022-08-11T05:14:40;101591.88;;;24.34;58.46
50462;BME280;45257;37.996;-122.328;2022-08-11T05:18:08;101589.00;;;24.36;58.29
50462;BME280;45257;37.996;-122.328;2022-08-11T05:21:06;101584.81;;;24.33;58.39
50462;BME280;45257;37.996;-122.328;2022-08-11T05:24:23;101585.66;;;24.34;58.46
50462;BME280;45257;37.996;-122.328;2022-08-11T05:27:13;101588.38;;;24.34;58.47
50462;BME280;45257;37.996;-122.328;2022-08-11T05:30:04;101595.63;;;24.33;58.64
50462;BME280;45257;37.996;-122.328;2022-08-11T05:33:24;101589.41;;;24.33;58.72
50462;BME280;45257;37.996;-122.328;2022-08-11T05:36:52;101594.19;;;24.31;58.74
50462;BME280;45257;37.996;-122.328;2022-08-11T05:39:50;101597.72;;;24.31;58.91
50462;BME280;45257;37.996;-122.328;2022-08-11T05:42:47;101595.00;;;24.31;58.65
50462;BME280;45257;37.996;-122.328;2022-08-11T05:45:34;101599.59;;;24.31;58.80
50462;BME280;45257;37.996;-122.328;2022-08-11T05:48:20;101592.31;;;24.31;58.97
50462;BME280;45257;37.996;-122.328;2022-08-11T05:51:06;101591.50;;;24.31;58.91
50462;BME280;45257;37.996;-122.328;2022-08-11T05:53:55;101595.22;;;24.30;59.04
50462;BME280;45257;37.996;-122.328;2022-08-11T05:57:01;101592.75;;;24.28;59.02
50462;BME280;45257;37.996;-122.328;2022-08-11T05:59:29;101589.22;;;24.28;58.93
50462;BME280;45257;37.996;-122.328;2022-08-11T06:02:06;101585.69;;;24.27;58.90
50462;BME280;45257;37.996;-122.328;2022-08-11T06:04:34;101589.44;;;24.26;59.01
50462;BME280;45257;37.996;-122.328;2022-08-11T06:07:07;101578.63;;;24.26;58.94
50462;BME280;45257;37.996;-122.328;2022-08-11T06:09:47;101579.66;;;24.25;58.72
50462;BME280;45257;37.996;-122.328;2022-08-11T06:12:31;101585.25;;;24.24;58.86
50462;BME280;45257;37.996;-122.328;2022-08-11T06:15:07;101585.25;;;24.24;58.93
50462;BME280;45257;37.996;-122.328;2022-08-11T06:17:44;101587.16;;;24.23;59.11
50462;BME280;45257;37.996;-122.328;2022-08-11T06:20:14;101581.75;;;24.23;58.92
50462;BME280;45257;37.996;-122.328;2022-08-11T06:22:46;101575.69;;;24.28;58.85
50462;BME280;45257;37.996;-122.328;2022-08-11T06:25:14;101580.47;;;24.32;58.81
50462;BME280;45257;37.996;-122.328;2022-08-11T06:27:45;101571.94;;;24.35;58.56
50462;BME280;45257;37.996;-122.328;2022-08-11T06:30:14;101567.75;;;24.40;58.67
50462;BME280;45257;37.996;-122.328;2022-08-11T06:32:45;101574.84;;;24.41;58.73
50462;BME280;45257;37.996;-122.328;2022-08-11T06:36:14;101575.44;;;24.43;58.46
50462;BME280;45257;37.996;-122.328;2022-08-11T06:39:04;101582.50;;;24.44;58.43
50462;BME280;45257;37.996;-122.328;2022-08-11T06:42:06;101573.38;;;24.45;58.61
50462;BME280;45257;37.996;-122.328;2022-08-11T06:47:46;101570.66;;;24.45;58.56
50462;BME280;45257;37.996;-122.328;2022-08-11T06:50:20;101570.66;;;24.45;58.68
50462;BME280;45257;37.996;-122.328;2022-08-11T06:53:08;101566.91;;;24.46;58.78
50462;BME280;45257;37.996;-122.328;2022-08-11T06:55:40;101567.72;;;24.46;58.51
50462;BME280;45257;37.996;-122.328;2022-08-11T06:58:32;101576.66;;;24.47;58.46
50462;BME280;45257;37.996;-122.328;2022-08-11T07:04:35;101574.81;;;24.47;58.48
50462;BME280;45257;37.996;-122.328;2022-08-11T07:14:10;101572.31;;;24.46;58.85
50462;BME280;45257;37.996;-122.328;2022-08-11T07:16:58;101569.00;;;24.44;58.75
50462;BME280;45257;37.996;-122.328;2022-08-11T07:19:29;101573.38;;;24.45;58.52
50462;BME280;45257;37.996;-122.328;2022-08-11T07:22:15;101570.84;;;24.43;58.78
50462;BME280;45257;37.996;-122.328;2022-08-11T07:25:23;101572.75;;;24.43;58.15
50462;BME280;45257;37.996;-122.328;2022-08-11T07:28:20;101571.91;;;24.42;58.68
50462;BME280;45257;37.996;-122.328;2022-08-11T07:31:18;101569.44;;;24.41;58.30
50462;BME280;45257;37.996;-122.328;2022-08-11T07:33:55;101575.88;;;24.40;58.35
50462;BME280;45257;37.996;-122.328;2022-08-11T07:36:27;101574.22;;;24.39;58.33
50462;BME280;45257;37.996;-122.328;2022-08-11T07:38:56;101573.16;;;24.40;58.46
50462;BME280;45257;37.996;-122.328;2022-08-11T07:41:25;101571.72;;;24.37;58.56
50462;BME280;45257;37.996;-122.328;2022-08-11T07:43:58;101574.44;;;24.37;58.14
50462;BME280;45257;37.996;-122.328;2022-08-11T07:46:44;101572.78;;;24.36;58.52
50462;BME280;45257;37.996;-122.328;2022-08-11T07:49:35;101569.22;;;24.35;58.18
50462;BME280;45257;37.996;-122.328;2022-08-11T07:52:22;101571.31;;;24.33;58.45
50462;BME280;45257;37.996;-122.328;2022-08-11T07:55:13;101570.69;;;24.31;58.31
50462;BME280;45257;37.996;-122.328;2022-08-11T07:57:44;101569.88;;;24.31;58.16
50462;BME280;45257;37.996;-122.328;2022-08-11T08:00:55;101566.31;;;24.30;57.86
50462;BME280;45257;37.996;-122.328;2022-08-11T08:03:42;101565.72;;;24.28;57.98
50462;BME280;45257;37.996;-122.328;2022-08-11T08:06:30;101562.41;;;24.26;58.14
50462;BME280;45257;37.996;-122.328;2022-08-11T08:09:19;101563.44;;;24.25;58.31
50462;BME280;45257;37.996;-122.328;2022-08-11T08:12:06;101562.81;;;24.23;58.29
50462;BME280;45257;37.996;-122.328;2022-08-11T08:14:54;101563.88;;;24.22;58.25
50462;BME280;45257;37.996;-122.328;2022-08-11T08:17:42;101555.13;;;24.20;58.58
50462;BME280;45257;37.996;-122.328;2022-08-11T08:20:46;101555.38;;;24.18;58.28
50462;BME280;45257;37.996;-122.328;2022-08-11T08:23:15;101552.84;;;24.17;58.32
50462;BME280;45257;37.996;-122.328;2022-08-11T08:25:44;101560.97;;;24.17;58.17
50462;BME280;45257;37.996;-122.328;2022-08-11T08:28:15;101556.59;;;24.16;58.13
50462;BME280;45257;37.996;-122.328;2022-08-11T08:30:43;101552.25;;;24.15;58.45
50462;BME280;45257;37.996;-122.328;2022-08-11T08:33:29;101540.81;;;24.13;58.21
50462;BME280;45257;37.996;-122.328;2022-08-11T08:36:02;101545.41;;;24.12;58.38
50462;BME280;45257;37.996;-122.328;2022-08-11T08:38:48;101543.72;;;24.11;58.39
50462;BME280;45257;37.996;-122.328;2022-08-11T08:41:28;101537.50;;;24.11;58.31
50462;BME280;45257;37.996;-122.328;2022-08-11T08:44:03;101540.19;;;24.11;58.61
50462;BME280;45257;37.996;-122.328;2022-08-11T08:46:41;101546.03;;;24.08;58.65
50462;BME280;45257;37.996;-122.328;2022-08-11T08:49:25;101536.06;;;24.08;58.65
50462;BME280;45257;37.996;-122.328;2022-08-11T08:52:02;101541.69;;;24.07;58.80
50462;BME280;45257;37.996;-122.328;2022-08-11T08:54:35;101526.50;;;24.06;58.89
50462;BME280;45257;37.996;-122.328;2022-08-11T08:57:06;101531.28;;;24.03;58.81
50462;BME280;45257;37.996;-122.328;2022-08-11T08:59:40;101528.59;;;24.03;58.58
50462;BME280;45257;37.996;-122.328;2022-08-11T09:02:08;101529.63;;;24.02;58.59
50462;BME280;45257;37.996;-122.328;2022-08-11T09:04:40;101533.38;;;24.01;59.00
50462;BME280;45257;37.996;-122.328;2022-08-11T09:07:13;101532.75;;;23.99;58.80
50462;BME280;45257;37.996;-122.328;2022-08-11T09:09:50;101530.06;;;23.99;59.08
50462;BME280;45257;37.996;-122.328;2022-08-11T09:12:20;101528.59;;;23.97;59.10
50462;BME280;45257;37.996;-122.328;2022-08-11T09:14:49;101527.72;;;23.96;59.00
50462;BME280;45257;37.996;-122.328;2022-08-11T09:17:32;101527.97;;;23.95;58.97
50462;BME280;45257;37.996;-122.328;2022-08-11T09:20:18;101526.28;;;23.94;59.11
50462;BME280;45257;37.996;-122.328;2022-08-11T09:22:48;101528.16;;;23.93;59.21
50462;BME280;45257;37.996;-122.328;2022-08-11T09:25:34;101529.19;;;23.92;59.15
50462;BME280;45257;37.996;-122.328;2022-08-11T09:28:21;101528.38;;;23.92;59.08
50462;BME280;45257;37.996;-122.328;2022-08-11T09:30:51;101531.31;;;23.90;58.93
50462;BME280;45257;37.996;-122.328;2022-08-11T09:33:23;101528.59;;;23.90;59.33
50462;BME280;45257;37.996;-122.328;2022-08-11T09:35:52;101535.84;;;23.89;59.42
50462;BME280;45257;37.996;-122.328;2022-08-11T09:38:23;101540.63;;;23.87;59.42
50462;BME280;45257;37.996;-122.328;2022-08-11T09:41:11;101537.31;;;23.85;59.30
50462;BME280;45257;37.996;-122.328;2022-08-11T09:43:43;101532.94;;;23.84;59.51
50462;BME280;45257;37.996;-122.328;2022-08-11T09:46:30;101539.19;;;23.85;59.40
50462;BME280;45257;37.996;-122.328;2022-08-11T09:49:02;101539.19;;;23.85;59.39
50462;BME280;45257;37.996;-122.328;2022-08-11T09:51:32;101534.22;;;23.82;59.57
50462;BME280;45257;37.996;-122.328;2022-08-11T09:54:02;101530.47;;;23.83;59.70
50462;BME280;45257;37.996;-122.328;2022-08-11T09:56:33;101534.22;;;23.82;59.50
50462;BME280;45257;37.996;-122.328;2022-08-11T09:59:21;101525.28;;;23.81;59.27
50462;BME280;45257;37.996;-122.328;2022-08-11T10:01:57;101521.75;;;23.81;59.61
50462;BME280;45257;37.996;-122.328;2022-08-11T10:04:41;101520.09;;;23.80;59.39
50462;BME280;45257;37.996;-122.328;2022-08-11T10:07:13;101523.81;;;23.79;59.57
50462;BME280;45257;37.996;-122.328;2022-08-11T10:10:00;101520.31;;;23.78;59.54
50462;BME280;45257;37.996;-122.328;2022-08-11T10:12:36;101521.34;;;23.77;59.50
50462;BME280;45257;37.996;-122.328;2022-08-11T10:15:09;101514.28;;;23.76;59.64
50462;BME280;45257;37.996;-122.328;2022-08-11T10:17:59;101521.75;;;23.74;59.81
50462;BME280;45257;37.996;-122.328;2022-08-11T10:20:49;101520.09;;;23.73;59.46
50462;BME280;45257;37.996;-122.328;2022-08-11T10:23:17;101526.53;;;23.72;59.65
50462;BME280;45257;37.996;-122.328;2022-08-11T10:26:03;101527.38;;;23.72;59.52
50462;BME280;45257;37.996;-122.328;2022-08-11T10:28:50;101524.06;;;23.70;59.87
50462;BME280;45257;37.996;-122.328;2022-08-11T10:31:20;101524.25;;;23.69;59.90
50462;BME280;45257;37.996;-122.328;2022-08-11T10:34:08;101522.81;;;23.66;60.04
50462;BME280;45257;37.996;-122.328;2022-08-11T10:36:42;101514.72;;;23.66;59.98
50462;BME280;45257;37.996;-122.328;2022-08-11T10:39:19;101518.44;;;23.65;60.06
50462;BME280;45257;37.996;-122.328;2022-08-11T10:41:47;101504.09;;;23.65;59.88
50462;BME280;45257;37.996;-122.328;2022-08-11T10:44:40;101511.38;;;23.64;59.75
50462;BME280;45257;37.996;-122.328;2022-08-11T10:47:10;101503.28;;;23.64;59.79
50462;BME280;45257;37.996;-122.328;2022-08-11T10:49:56;101509.72;;;23.63;59.82
50462;BME280;45257;37.996;-122.328;2022-08-11T10:52:46;101505.38;;;23.62;59.75
50462;BME280;45257;37.996;-122.328;2022-08-11T10:55:33;101503.06;;;23.59;59.80
50462;BME280;45257;37.996;-122.328;2022-08-11T10:58:18;101511.19;;;23.59;59.90
50462;BME280;45257;37.996;-122.328;2022-08-11T11:01:06;101504.13;;;23.58;60.01
50462;BME280;45257;37.996;-122.328;2022-08-11T11:03:35;101501.41;;;23.58;59.95
50462;BME280;45257;37.996;-122.328;2022-08-11T11:09:07;101500.78;;;23.56;60.23
50462;BME280;45257;37.996;-122.328;2022-08-11T11:11:42;101494.81;;;23.54;60.33
50462;BME280;45257;37.996;-122.328;2022-08-11T11:14:31;101494.19;;;23.52;60.53
50462;BME280;45257;37.996;-122.328;2022-08-11T11:17:42;101499.56;;;23.52;60.36
50462;BME280;45257;37.996;-122.328;2022-08-11T11:20:41;101490.84;;;23.50;60.15
50462;BME280;45257;37.996;-122.328;2022-08-11T11:27:05;101487.75;;;23.46;60.47
50462;BME280;45257;37.996;-122.328;2022-08-11T11:30:07;101495.84;;;23.46;60.91
50462;BME280;45257;37.996;-122.328;2022-08-11T11:38:40;101499.16;;;23.41;60.70
50462;BME280;45257;37.996;-122.328;2022-08-11T11:41:08;101496.44;;;23.41;60.94
50462;BME280;45257;37.996;-122.328;2022-08-11T11:43:56;101497.50;;;23.40;60.64
50462;BME280;45257;37.996;-122.328;2022-08-11T11:46:29;101503.09;;;23.39;60.80
50462;BME280;45257;37.996;-122.328;2022-08-11T11:48:58;101507.66;;;23.38;60.66
50462;BME280;45257;37.996;-122.328;2022-08-11T11:51:32;101511.38;;;23.37;60.67
50462;BME280;45257;37.996;-122.328;2022-08-11T11:54:00;101506.00;;;23.37;60.66
50462;BME280;45257;37.996;-122.328;2022-08-11T11:56:28;101506.22;;;23.36;60.81
50462;BME280;45257;37.996;-122.328;2022-08-11T11:58:56;101509.94;;;23.35;60.97
50462;BME280;45257;37.996;-122.328;2022-08-11T12:01:42;101510.97;;;23.34;60.77
50462;BME280;45257;37.996;-122.328;2022-08-11T12:04:11;101506.84;;;23.31;60.98
50462;BME280;45257;37.996;-122.328;2022-08-11T12:06:41;101508.50;;;23.32;60.90
50462;BME280;45257;37.996;-122.328;2022-08-11T12:09:11;101503.31;;;23.31;61.01
50462;BME280;45257;37.996;-122.328;2022-08-11T12:11:46;101511.00;;;23.27;61.24
50462;BME280;45257;37.996;-122.328;2022-08-11T12:14:31;101509.94;;;23.28;60.81
50462;BME280;45257;37.996;-122.328;2022-08-11T12:16:59;101496.69;;;23.26;61.07
50462;BME280;45257;37.996;-122.328;2022-08-11T12:19:27;101498.53;;;23.26;60.95
50462;BME280;45257;37.996;-122.328;2022-08-11T12:21:57;101498.53;;;23.26;60.99
50462;BME280;45257;37.996;-122.328;2022-08-11T12:24:45;101489.63;;;23.25;60.82
50462;BME280;45257;37.996;-122.328;2022-08-11T12:27:31;101493.53;;;23.23;60.77
50462;BME280;45257;37.996;-122.328;2022-08-11T12:30:04;101488.16;;;23.23;61.10
50462;BME280;45257;37.996;-122.328;2022-08-11T12:32:33;101496.47;;;23.21;60.82
50462;BME280;45257;37.996;-122.328;2022-08-11T12:35:02;101491.22;;;23.20;60.81
50462;BME280;45257;37.996;-122.328;2022-08-11T12:37:48;101492.28;;;23.19;60.68
50462;BME280;45257;37.996;-122.328;2022-08-11T12:40:23;101493.34;;;23.18;60.63
50462;BME280;45257;37.996;-122.328;2022-08-11T12:43:17;101493.50;;;23.16;61.01
50462;BME280;45257;37.996;-122.328;2022-08-11T12:46:11;101505.16;;;23.17;60.94
50462;BME280;45257;37.996;-122.328;2022-08-11T12:48:57;101508.03;;;23.15;60.63
50462;BME280;45257;37.996;-122.328;2022-08-11T12:51:52;101505.56;;;23.13;61.04
50462;BME280;45257;37.996;-122.328;2022-08-11T12:57:40;101514.06;;;23.10;60.95
50462;BME280;45257;37.996;-122.328;2022-08-11T13:00:27;101510.72;;;23.08;60.93
50462;BME280;45257;37.996;-122.328;2022-08-11T13:03:14;101503.91;;;23.06;60.78
50462;BME280;45257;37.996;-122.328;2022-08-11T13:06:04;101510.09;;;23.06;60.70
50462;BME280;45257;37.996;-122.328;2022-08-11T13:08:35;101508.44;;;23.05;60.80
50462;BME280;45257;37.996;-122.328;2022-08-11T13:11:04;101517.56;;;23.04;60.89
50462;BME280;45257;37.996;-122.328;2022-08-11T13:13:51;101516.94;;;23.02;60.92
50462;BME280;45257;37.996;-122.328;2022-08-11T13:16:32;101509.88;;;23.01;60.88
50462;BME280;45257;37.996;-122.328;2022-08-11T13:19:21;101519.63;;;23.02;61.27
50462;BME280;45257;37.996;-122.328;2022-08-11T13:21:49;101527.94;;;23.01;61.01
50462;BME280;45257;37.996;-122.328;2022-08-11T13:24:18;101531.91;;;22.98;61.11
50462;BME280;45257;37.996;-122.328;2022-08-11T13:26:46;101538.94;;;22.99;60.98
50462;BME280;45257;37.996;-122.328;2022-08-11T13:29:24;101541.03;;;22.97;61.03
50462;BME280;45257;37.996;-122.328;2022-08-11T13:31:57;101545.56;;;22.96;60.81
50462;BME280;45257;37.996;-122.328;2022-08-11T13:34:27;101552.22;;;22.94;60.94
50462;BME280;45257;37.996;-122.328;2022-08-11T13:37:01;101554.91;;;22.94;60.71
50462;BME280;45257;37.996;-122.328;2022-08-11T13:39:32;101556.75;;;22.93;61.03
50462;BME280;45257;37.996;-122.328;2022-08-11T13:42:01;101552.22;;;22.94;60.78
50462;BME280;45257;37.996;-122.328;2022-08-11T13:44:35;101558.00;;;22.91;61.05
50462;BME280;45257;37.996;-122.328;2022-08-11T13:47:06;101560.69;;;22.91;60.89
50462;BME280;45257;37.996;-122.328;2022-08-11T13:49:39;101559.88;;;22.90;60.92
50462;BME280;45257;37.996;-122.328;2022-08-11T13:52:15;101559.03;;;22.90;61.06
50462;BME280;45257;37.996;-122.328;2022-08-11T13:54:45;101564.25;;;22.91;61.01
50462;BME280;45257;37.996;-122.328;2022-08-11T13:57:14;101568.16;;;22.89;61.11
50462;BME280;45257;37.996;-122.328;2022-08-11T13:59:46;101567.13;;;22.90;61.21
50462;BME280;45257;37.996;-122.328;2022-08-11T14:02:17;101577.28;;;22.88;61.28
50462;BME280;45257;37.996;-122.328;2022-08-11T14:05:13;101584.75;;;22.86;61.47
50462;BME280;45257;37.996;-122.328;2022-08-11T14:07:52;101575.19;;;22.83;61.79
50462;BME280;45257;37.996;-122.328;2022-08-11T14:10:23;101583.28;;;22.83;62.13
50462;BME280;45257;37.996;-122.328;2022-08-11T14:13:09;101580.59;;;22.83;62.27
50462;BME280;45257;37.996;-122.328;2022-08-11T14:16:05;101594.88;;;22.83;62.37
50462;BME280;45257;37.996;-122.328;2022-08-11T14:18:33;101591.16;;;22.84;62.38
50462;BME280;45257;37.996;-122.328;2022-08-11T14:21:04;101595.34;;;22.87;62.70
50462;BME280;45257;37.996;-122.328;2022-08-11T14:24:04;101596.38;;;22.86;62.38
50462;BME280;45257;37.996;-122.328;2022-08-11T14:26:31;101600.72;;;22.87;62.07
50462;BME280;45257;37.996;-122.328;2022-08-11T14:29:17;101599.88;;;22.87;61.97
50462;BME280;45257;37.996;-122.328;2022-08-11T14:31:55;101601.94;;;22.84;61.75
50462;BME280;45257;37.996;-122.328;2022-08-11T14:34:25;101610.03;;;22.84;61.42
50462;BME280;45257;37.996;-122.328;2022-08-11T14:37:09;101612.94;;;22.83;61.28
50462;BME280;45257;37.996;-122.328;2022-08-11T14:39:46;101606.72;;;22.82;61.31
50462;BME280;45257;37.996;-122.328;2022-08-11T14:42:16;101622.88;;;22.82;61.24
50462;BME280;45257;37.996;-122.328;2022-08-11T14:45:14;101627.47;;;22.82;60.92
50462;BME280;45257;37.996;-122.328;2022-08-11T14:48:03;101623.09;;;22.81;60.89
50462;BME280;45257;37.996;-122.328;2022-08-11T14:50:34;101619.59;;;22.80;60.96
50462;BME280;45257;37.996;-122.328;2022-08-11T14:53:10;101626.00;;;22.79;60.72
50462;BME280;45257;37.996;-122.328;2022-08-11T14:55:43;101617.06;;;22.79;60.88
50462;BME280;45257;37.996;-122.328;2022-08-11T14:58:30;101621.66;;;22.78;60.90
50462;BME280;45257;37.996;-122.328;2022-08-11T15:01:01;101626.19;;;22.78;60.90
50462;BME280;45257;37.996;-122.328;2022-08-11T15:03:32;101622.69;;;22.77;61.18
50462;BME280;45257;37.996;-122.328;2022-08-11T15:06:01;101626.19;;;22.78;60.91
50462;BME280;45257;37.996;-122.328;2022-08-11T15:08:37;101612.94;;;22.76;60.77
50462;BME280;45257;37.996;-122.328;2022-08-11T15:11:29;101622.69;;;22.77;60.89
50462;BME280;45257;37.996;-122.328;2022-08-11T15:14:16;101619.13;;;22.77;60.81
50462;BME280;45257;37.996;-122.328;2022-08-11T15:17:06;101618.31;;;22.76;60.63
50462;BME280;45257;37.996;-122.328;2022-08-11T15:19:35;101618.50;;;22.75;61.06
50462;BME280;45257;37.996;-122.328;2022-08-11T15:22:03;101624.75;;;22.75;60.71
50462;BME280;45257;37.996;-122.328;2022-08-11T15:24:48;101623.72;;;22.76;60.93
50462;BME280;45257;37.996;-122.328;2022-08-11T15:27:19;101624.75;;;22.75;60.84
50462;BME280;45257;37.996;-122.328;2022-08-11T15:30:07;101632.84;;;22.75;60.51
50462;BME280;45257;37.996;-122.328;2022-08-11T15:32:53;101637.19;;;22.76;60.65
50462;BME280;45257;37.996;-122.328;2022-08-11T15:35:40;101638.22;;;22.75;60.64
50462;BME280;45257;37.996;-122.328;2022-08-11T15:38:27;101641.56;;;22.77;60.66
50462;BME280;45257;37.996;-122.328;2022-08-11T15:41:04;101639.69;;;22.78;60.93
50462;BME280;45257;37.996;-122.328;2022-08-11T15:43:53;101645.28;;;22.76;60.92
50462;BME280;45257;37.996;-122.328;2022-08-11T15:46:48;101648.63;;;22.78;61.06
50462;BME280;45257;37.996;-122.328;2022-08-11T15:49:36;101651.31;;;22.78;61.09
50462;BME280;45257;37.996;-122.328;2022-08-11T15:52:15;101649.25;;;22.80;60.96
50462;BME280;45257;37.996;-122.328;2022-08-11T15:54:44;101651.94;;;22.80;61.11
50462;BME280;45257;37.996;-122.328;2022-08-11T15:57:15;101653.59;;;22.81;61.30
50462;BME280;45257;37.996;-122.328;2022-08-11T16:00:04;101646.34;;;22.82;61.03
50462;BME280;45257;37.996;-122.328;2022-08-11T16:02:51;101645.31;;;22.83;61.01
50462;BME280;45257;37.996;-122.328;2022-08-11T16:05:22;101645.09;;;22.84;61.09
50462;BME280;45257;37.996;-122.328;2022-08-11T16:07:51;101645.09;;;22.84;60.90
50462;BME280;45257;37.996;-122.328;2022-08-11T16:10:20;101653.19;;;22.84;60.74
50462;BME280;45257;37.996;-122.328;2022-08-11T16:13:00;101645.72;;;22.87;60.77
50462;BME280;45257;37.996;-122.328;2022-08-11T16:15:50;101645.94;;;22.85;60.80
50462;BME280;45257;37.996;-122.328;2022-08-11T16:18:56;101644.28;;;22.84;60.92
50462;BME280;45257;37.996;-122.328;2022-08-11T16:21:33;101638.66;;;22.86;60.92
50462;BME280;45257;37.996;-122.328;2022-08-11T16:24:08;101633.28;;;22.86;60.83
50462;BME280;45257;37.996;-122.328;2022-08-11T16:26:41;101630.56;;;22.86;60.60
50462;BME280;45257;37.996;-122.328;2022-08-11T16:29:10;101629.75;;;22.85;60.69
50462;BME280;45257;37.996;-122.328;2022-08-11T16:31:39;101626.22;;;22.84;60.71
50462;BME280;45257;37.996;-122.328;2022-08-11T16:34:07;101632.66;;;22.83;60.56
50462;BME280;45257;37.996;-122.328;2022-08-11T16:36:57;101638.25;;;22.82;61.01
50462;BME280;45257;37.996;-122.328;2022-08-11T16:39:43;101639.06;;;22.82;60.81
50462;BME280;45257;37.996;-122.328;2022-08-11T16:42:12;101636.38;;;22.82;60.45